sensor_id;sensor_type;location;lat;lon;timestamp;P1;durP1;ratioP1;P2;durP2;ratioP2
13279;SDS011;6708;49.814;8.652;2023-04-01T00:01:25;1.93;;;0.70;;
13279;SDS011;6708;49.814;8.652;2023-04-01T00:03:53;1.30;;;0.80;;
13279;SDS011;6708;49.814;8.652;2023-04-01T00:06:22;3.50;;;0.70;;
13279;SDS011;6708;49.814;8.652;2023-04-01T00:08:50;2.80;;;0.83;;
13279;SDS011;6708;49.814;8.652;2023-04-01T00:11:19;2.83;;;0.73;;
13279;SDS011;6708;49.814;8.652;2023-04-01T00:13:47;2.23;;;0.80;;
13279;SDS011;6708;49.814;8.652;2023-04-01T00:16:18;2.20;;;0.67;;
13279;SDS011;6708;49.814;8.652;2023-04-01T00:18:49;4.53;;;0.80;;
13279;SDS011;6708;49.814;8.652;2023-04-01T00:21:18;1.90;;;0.70;;
13279;SDS011;6708;49.814;8.652;2023-04-01T00:23:46;2.43;;;0.63;;
13279;SDS011;6708;49.814;8.652;2023-04-01T00:26:15;1.17;;;0.63;;
13279;SDS011;6708;49.814;8.652;2023-04-01T00:28:47;4.80;;;0.80;;
13279;SDS011;6708;49.814;8.652;2023-04-01T00:31:19;0.77;;;0.60;;
13279;SDS011;6708;49.814;8.652;2023-04-01T00:33:47;2.67;;;0.60;;
13279;SDS011;6708;49.814;8.652;2023-04-01T00:36:17;3.03;;;0.97;;
13279;SDS011;6708;49.814;8.652;2023-04-01T00:38:46;0.83;;;0.70;;
13279;SDS011;6708;49.814;8.652;2023-04-01T00:41:15;1.37;;;0.90;;
13279;SDS011;6708;49.814;8.652;2023-04-01T00:43:45;1.73;;;0.70;;
13279;SDS011;6708;49.814;8.652;2023-04-01T00:46:14;3.77;;;0.90;;
13279;SDS011;6708;49.814;8.652;2023-04-01T00:48:47;2.77;;;0.60;;
13279;SDS011;6708;49.814;8.652;2023-04-01T00:51:17;1.60;;;0.67;;
13279;SDS011;6708;49.814;8.652;2023-04-01T00:53:48;2.77;;;1.00;;
13279;SDS011;6708;49.814;8.652;2023-04-01T00:56:18;0.87;;;0.63;;
13279;SDS011;6708;49.814;8.652;2023-04-01T00:58:50;11.93;;;1.40;;
13279;SDS011;6708;49.814;8.652;2023-04-01T01:01:20;2.83;;;0.97;;
13279;SDS011;6708;49.814;8.652;2023-04-01T01:03:53;0.60;;;0.60;;
13279;SDS011;6708;49.814;8.652;2023-04-01T01:06:26;3.53;;;0.93;;
13279;SDS011;6708;49.814;8.652;2023-04-01T01:09:10;1.40;;;0.87;;
13279;SDS011;6708;49.814;8.652;2023-04-01T01:11:47;0.53;;;0.53;;
13279;SDS011;6708;49.814;8.652;2023-04-01T01:14:21;2.30;;;0.73;;
13279;SDS011;6708;49.814;8.652;2023-04-01T01:16:58;2.73;;;0.90;;
13279;SDS011;6708;49.814;8.652;2023-04-01T01:22:54;2.87;;;1.07;;
13279;SDS011;6708;49.814;8.652;2023-04-01T01:25:33;1.57;;;0.63;;
13279;SDS011;6708;49.814;8.652;2023-04-01T01:28:14;1.47;;;0.70;;
13279;SDS011;6708;49.814;8.652;2023-04-01T01:30:57;1.70;;;0.80;;
13279;SDS011;6708;49.814;8.652;2023-04-01T01:33:34;0.90;;;0.43;;
13279;SDS011;6708;49.814;8.652;2023-04-01T01:36:09;1.37;;;1.07;;
13279;SDS011;6708;49.814;8.652;2023-04-01T01:38:38;1.33;;;0.67;;
13279;SDS011;6708;49.814;8.652;2023-04-01T01:41:07;0.40;;;0.40;;
13279;SDS011;6708;49.814;8.652;2023-04-01T01:43:38;1.67;;;0.90;;
13279;SDS011;6708;49.814;8.652;2023-04-01T01:46:11;1.57;;;0.63;;
13279;SDS011;6708;49.814;8.652;2023-04-01T01:48:41;1.03;;;0.60;;
13279;SDS011;6708;49.814;8.652;2023-04-01T01:51:13;1.07;;;0.80;;
13279;SDS011;6708;49.814;8.652;2023-04-01T01:53:42;4.00;;;0.70;;
13279;SDS011;6708;49.814;8.652;2023-04-01T01:56:10;1.30;;;0.90;;
13279;SDS011;6708;49.814;8.652;2023-04-01T01:58:42;0.97;;;0.50;;
13279;SDS011;6708;49.814;8.652;2023-04-01T02:01:16;2.67;;;0.50;;
13279;SDS011;6708;49.814;8.652;2023-04-01T02:03:45;1.07;;;0.63;;
13279;SDS011;6708;49.814;8.652;2023-04-01T02:06:17;5.10;;;1.00;;
13279;SDS011;6708;49.814;8.652;2023-04-01T02:08:49;1.23;;;0.90;;
13279;SDS011;6708;49.814;8.652;2023-04-01T02:11:21;1.23;;;0.77;;
13279;SDS011;6708;49.814;8.652;2023-04-01T02:13:52;1.47;;;0.80;;
13279;SDS011;6708;49.814;8.652;2023-04-01T02:16:23;1.90;;;0.83;;
13279;SDS011;6708;49.814;8.652;2023-04-01T02:18:55;1.17;;;1.00;;
13279;SDS011;6708;49.814;8.652;2023-04-01T02:21:27;5.00;;;0.60;;
13279;SDS011;6708;49.814;8.652;2023-04-01T02:23:58;3.93;;;0.77;;
13279;SDS011;6708;49.814;8.652;2023-04-01T02:26:29;1.07;;;0.60;;
13279;SDS011;6708;49.814;8.652;2023-04-01T02:28:57;2.50;;;0.77;;
13279;SDS011;6708;49.814;8.652;2023-04-01T02:31:28;1.33;;;0.60;;
13279;SDS011;6708;49.814;8.652;2023-04-01T02:33:57;2.00;;;1.03;;
13279;SDS011;6708;49.814;8.652;2023-04-01T02:36:28;0.77;;;0.53;;
13279;SDS011;6708;49.814;8.652;2023-04-01T02:38:56;2.93;;;0.80;;
13279;SDS011;6708;49.814;8.652;2023-04-01T02:41:27;0.60;;;0.50;;
13279;SDS011;6708;49.814;8.652;2023-04-01T02:43:56;1.27;;;0.60;;
13279;SDS011;6708;49.814;8.652;2023-04-01T02:46:26;4.60;;;1.07;;
13279;SDS011;6708;49.814;8.652;2023-04-01T02:48:54;2.60;;;0.63;;
13279;SDS011;6708;49.814;8.652;2023-04-01T02:51:23;1.90;;;0.80;;
13279;SDS011;6708;49.814;8.652;2023-04-01T02:53:54;0.57;;;0.57;;
13279;SDS011;6708;49.814;8.652;2023-04-01T02:56:23;0.70;;;0.70;;
13279;SDS011;6708;49.814;8.652;2023-04-01T02:58:51;1.20;;;0.53;;
13279;SDS011;6708;49.814;8.652;2023-04-01T03:01:20;2.30;;;0.90;;
13279;SDS011;6708;49.814;8.652;2023-04-01T03:03:49;1.50;;;0.60;;
13279;SDS011;6708;49.814;8.652;2023-04-01T03:06:17;0.87;;;0.67;;
13279;SDS011;6708;49.814;8.652;2023-04-01T03:08:46;2.57;;;0.80;;
13279;SDS011;6708;49.814;8.652;2023-04-01T03:11:17;1.17;;;0.80;;
13279;SDS011;6708;49.814;8.652;2023-04-01T03:13:46;2.30;;;0.63;;
13279;SDS011;6708;49.814;8.652;2023-04-01T03:16:15;0.50;;;0.50;;
13279;SDS011;6708;49.814;8.652;2023-04-01T03:18:44;1.73;;;0.50;;
13279;SDS011;6708;49.814;8.652;2023-04-01T03:21:15;1.73;;;0.73;;
13279;SDS011;6708;49.814;8.652;2023-04-01T03:23:44;1.57;;;0.60;;
13279;SDS011;6708;49.814;8.652;2023-04-01T03:26:13;3.20;;;0.50;;
13279;SDS011;6708;49.814;8.652;2023-04-01T03:28:44;1.17;;;0.60;;
13279;SDS011;6708;49.814;8.652;2023-04-01T03:31:13;1.27;;;0.63;;
13279;SDS011;6708;49.814;8.652;2023-04-01T03:33:47;0.77;;;0.60;;
13279;SDS011;6708;49.814;8.652;2023-04-01T03:36:16;1.53;;;0.67;;
13279;SDS011;6708;49.814;8.652;2023-04-01T03:38:46;4.53;;;0.60;;
13279;SDS011;6708;49.814;8.652;2023-04-01T03:41:21;1.00;;;0.50;;
13279;SDS011;6708;49.814;8.652;2023-04-01T03:43:53;0.87;;;0.50;;
13279;SDS011;6708;49.814;8.652;2023-04-01T03:46:22;0.40;;;0.40;;
13279;SDS011;6708;49.814;8.652;2023-04-01T03:48:50;2.00;;;0.53;;
13279;SDS011;6708;49.814;8.652;2023-04-01T03:51:18;1.53;;;0.60;;
13279;SDS011;6708;49.814;8.652;2023-04-01T03:53:47;0.73;;;0.30;;
13279;SDS011;6708;49.814;8.652;2023-04-01T03:56:16;0.50;;;0.40;;
13279;SDS011;6708;49.814;8.652;2023-04-01T03:58:44;1.90;;;0.73;;
13279;SDS011;6708;49.814;8.652;2023-04-01T04:01:16;1.90;;;0.40;;
13279;SDS011;6708;49.814;8.652;2023-04-01T04:03:47;0.87;;;0.60;;
13279;SDS011;6708;49.814;8.652;2023-04-01T04:06:16;1.37;;;0.57;;
13279;SDS011;6708;49.814;8.652;2023-04-01T04:08:48;2.37;;;0.40;;
13279;SDS011;6708;49.814;8.652;2023-04-01T04:11:16;3.27;;;0.70;;
13279;SDS011;6708;49.814;8.652;2023-04-01T04:13:46;1.30;;;0.60;;
13279;SDS011;6708;49.814;8.652;2023-04-01T04:16:19;0.80;;;0.50;;
13279;SDS011;6708;49.814;8.652;2023-04-01T04:18:54;0.83;;;0.57;;
13279;SDS011;6708;49.814;8.652;2023-04-01T04:21:22;7.73;;;0.70;;
13279;SDS011;6708;49.814;8.652;2023-04-01T04:23:51;1.23;;;0.57;;
13279;SDS011;6708;49.814;8.652;2023-04-01T04:26:19;0.87;;;0.60;;
13279;SDS011;6708;49.814;8.652;2023-04-01T04:28:54;1.00;;;0.57;;
13279;SDS011;6708;49.814;8.652;2023-04-01T04:31:26;0.53;;;0.50;;
13279;SDS011;6708;49.814;8.652;2023-04-01T04:33:58;1.60;;;0.43;;
13279;SDS011;6708;49.814;8.652;2023-04-01T04:36:30;0.30;;;0.30;;
13279;SDS011;6708;49.814;8.652;2023-04-01T04:38:58;1.80;;;0.93;;
13279;SDS011;6708;49.814;8.652;2023-04-01T04:41:29;1.47;;;0.97;;
13279;SDS011;6708;49.814;8.652;2023-04-01T04:43:57;1.87;;;0.80;;
13279;SDS011;6708;49.814;8.652;2023-04-01T04:46:29;1.13;;;0.50;;
13279;SDS011;6708;49.814;8.652;2023-04-01T04:49:07;1.03;;;0.63;;
13279;SDS011;6708;49.814;8.652;2023-04-01T04:51:36;1.93;;;0.60;;
13279;SDS011;6708;49.814;8.652;2023-04-01T04:54:04;0.97;;;0.50;;
13279;SDS011;6708;49.814;8.652;2023-04-01T04:56:46;0.73;;;0.43;;
13279;SDS011;6708;49.814;8.652;2023-04-01T04:59:15;0.87;;;0.60;;
13279;SDS011;6708;49.814;8.652;2023-04-01T05:01:57;0.47;;;0.40;;
13279;SDS011;6708;49.814;8.652;2023-04-01T05:04:25;0.57;;;0.57;;
13279;SDS011;6708;49.814;8.652;2023-04-01T05:06:53;1.07;;;0.50;;
13279;SDS011;6708;49.814;8.652;2023-04-01T05:09:24;0.80;;;0.63;;
13279;SDS011;6708;49.814;8.652;2023-04-01T05:11:52;1.17;;;0.70;;
13279;SDS011;6708;49.814;8.652;2023-04-01T05:14:23;2.30;;;0.50;;
13279;SDS011;6708;49.814;8.652;2023-04-01T05:17:01;1.00;;;0.50;;
13279;SDS011;6708;49.814;8.652;2023-04-01T05:19:30;0.53;;;0.37;;
13279;SDS011;6708;49.814;8.652;2023-04-01T05:21:58;2.93;;;0.40;;
13279;SDS011;6708;49.814;8.652;2023-04-01T05:24:28;0.80;;;0.40;;
13279;SDS011;6708;49.814;8.652;2023-04-01T05:26:56;0.40;;;0.40;;
13279;SDS011;6708;49.814;8.652;2023-04-01T05:29:26;0.70;;;0.50;;
13279;SDS011;6708;49.814;8.652;2023-04-01T05:32:05;1.00;;;0.77;;
13279;SDS011;6708;49.814;8.652;2023-04-01T05:34:33;0.90;;;0.73;;
13279;SDS011;6708;49.814;8.652;2023-04-01T05:37:02;1.23;;;0.47;;
13279;SDS011;6708;49.814;8.652;2023-04-01T05:39:35;0.77;;;0.60;;
13279;SDS011;6708;49.814;8.652;2023-04-01T05:42:05;1.83;;;0.33;;
13279;SDS011;6708;49.814;8.652;2023-04-01T05:44:34;1.90;;;0.50;;
13279;SDS011;6708;49.814;8.652;2023-04-01T05:47:25;0.60;;;0.50;;
13279;SDS011;6708;49.814;8.652;2023-04-01T05:49:53;0.40;;;0.40;;
13279;SDS011;6708;49.814;8.652;2023-04-01T05:52:22;0.80;;;0.80;;
13279;SDS011;6708;49.814;8.652;2023-04-01T05:54:50;0.77;;;0.10;;
13279;SDS011;6708;49.814;8.652;2023-04-01T05:57:18;1.03;;;0.30;;
13279;SDS011;6708;49.814;8.652;2023-04-01T05:59:47;0.37;;;0.30;;
13279;SDS011;6708;49.814;8.652;2023-04-01T06:02:16;0.80;;;0.30;;
13279;SDS011;6708;49.814;8.652;2023-04-01T06:04:50;4.43;;;0.60;;
13279;SDS011;6708;49.814;8.652;2023-04-01T06:07:27;0.70;;;0.57;;
13279;SDS011;6708;49.814;8.652;2023-04-01T06:09:57;0.50;;;0.40;;
13279;SDS011;6708;49.814;8.652;2023-04-01T06:12:29;1.30;;;0.47;;
13279;SDS011;6708;49.814;8.652;2023-04-01T06:15:13;0.40;;;0.40;;
13279;SDS011;6708;49.814;8.652;2023-04-01T06:17:51;1.57;;;0.53;;
13279;SDS011;6708;49.814;8.652;2023-04-01T06:20:34;1.27;;;0.40;;
13279;SDS011;6708;49.814;8.652;2023-04-01T06:23:12;0.40;;;0.33;;
13279;SDS011;6708;49.814;8.652;2023-04-01T06:25:50;0.63;;;0.30;;
13279;SDS011;6708;49.814;8.652;2023-04-01T06:28:38;0.30;;;0.30;;
13279;SDS011;6708;49.814;8.652;2023-04-01T06:31:16;1.03;;;0.63;;
13279;SDS011;6708;49.814;8.652;2023-04-01T06:33:54;0.70;;;0.40;;
13279;SDS011;6708;49.814;8.652;2023-04-01T06:36:45;1.03;;;0.40;;
13279;SDS011;6708;49.814;8.652;2023-04-01T06:39:26;0.97;;;0.60;;
13279;SDS011;6708;49.814;8.652;2023-04-01T06:42:11;0.50;;;0.20;;
13279;SDS011;6708;49.814;8.652;2023-04-01T06:44:49;1.17;;;0.50;;
13279;SDS011;6708;49.814;8.652;2023-04-01T06:47:48;1.33;;;0.70;;
13279;SDS011;6708;49.814;8.652;2023-04-01T06:50:51;0.67;;;0.37;;
13279;SDS011;6708;49.814;8.652;2023-04-01T06:54:02;0.50;;;0.50;;
13279;SDS011;6708;49.814;8.652;2023-04-01T06:57:02;2.70;;;0.73;;
13279;SDS011;6708;49.814;8.652;2023-04-01T06:59:34;0.37;;;0.20;;
13279;SDS011;6708;49.814;8.652;2023-04-01T07:02:04;0.93;;;0.33;;
13279;SDS011;6708;49.814;8.652;2023-04-01T07:04:40;1.00;;;0.77;;
13279;SDS011;6708;49.814;8.652;2023-04-01T07:07:13;0.70;;;0.50;;
13279;SDS011;6708;49.814;8.652;2023-04-01T07:09:56;0.60;;;0.30;;
13279;SDS011;6708;49.814;8.652;2023-04-01T07:12:32;0.87;;;0.20;;
13279;SDS011;6708;49.814;8.652;2023-04-01T07:15:28;0.30;;;0.30;;
13279;SDS011;6708;49.814;8.652;2023-04-01T07:18:01;0.40;;;0.40;;
13279;SDS011;6708;49.814;8.652;2023-04-01T07:20:37;0.40;;;0.33;;
13279;SDS011;6708;49.814;8.652;2023-04-01T07:23:06;1.37;;;0.43;;
13279;SDS011;6708;49.814;8.652;2023-04-01T07:26:06;0.60;;;0.40;;
13279;SDS011;6708;49.814;8.652;2023-04-01T07:29:00;0.63;;;0.30;;
13279;SDS011;6708;49.814;8.652;2023-04-01T07:31:45;1.00;;;0.20;;
13279;SDS011;6708;49.814;8.652;2023-04-01T07:34:23;0.30;;;0.30;;
13279;SDS011;6708;49.814;8.652;2023-04-01T07:36:54;0.73;;;0.47;;
13279;SDS011;6708;49.814;8.652;2023-04-01T07:39:30;0.50;;;0.13;;
13279;SDS011;6708;49.814;8.652;2023-04-01T07:42:19;1.27;;;0.40;;
13279;SDS011;6708;49.814;8.652;2023-04-01T07:44:54;1.60;;;0.20;;
13279;SDS011;6708;49.814;8.652;2023-04-01T07:47:38;0.33;;;0.20;;
13279;SDS011;6708;49.814;8.652;2023-04-01T07:50:15;1.77;;;0.30;;
13279;SDS011;6708;49.814;8.652;2023-04-01T07:52:48;0.70;;;0.30;;
13279;SDS011;6708;49.814;8.652;2023-04-01T07:55:27;0.20;;;0.20;;
13279;SDS011;6708;49.814;8.652;2023-04-01T07:58:03;0.13;;;0.13;;
13279;SDS011;6708;49.814;8.652;2023-04-01T08:00:40;1.17;;;0.20;;
13279;SDS011;6708;49.814;8.652;2023-04-01T08:06:10;0.50;;;0.30;;
13279;SDS011;6708;49.814;8.652;2023-04-01T08:08:44;0.10;;;0.10;;
13279;SDS011;6708;49.814;8.652;2023-04-01T08:11:41;2.33;;;0.20;;
13279;SDS011;6708;49.814;8.652;2023-04-01T08:14:43;0.30;;;0.23;;
13279;SDS011;6708;49.814;8.652;2023-04-01T08:17:36;0.40;;;0.13;;
13279;SDS011;6708;49.814;8.652;2023-04-01T08:20:10;0.53;;;0.27;;
13279;SDS011;6708;49.814;8.652;2023-04-01T08:22:45;0.30;;;0.30;;
13279;SDS011;6708;49.814;8.652;2023-04-01T08:25:24;0.00;;;0.00;;
13279;SDS011;6708;49.814;8.652;2023-04-01T08:27:56;0.50;;;0.20;;
13279;SDS011;6708;49.814;8.652;2023-04-01T08:30:33;2.37;;;0.20;;
13279;SDS011;6708;49.814;8.652;2023-04-01T08:33:06;0.30;;;0.30;;
13279;SDS011;6708;49.814;8.652;2023-04-01T08:35:40;0.20;;;0.20;;
13279;SDS011;6708;49.814;8.652;2023-04-01T08:38:11;1.13;;;0.20;;
13279;SDS011;6708;49.814;8.652;2023-04-01T08:40:51;3.20;;;0.13;;
13279;SDS011;6708;49.814;8.652;2023-04-01T08:43:38;1.00;;;0.50;;
13279;SDS011;6708;49.814;8.652;2023-04-01T08:49:03;0.47;;;0.20;;
13279;SDS011;6708;49.814;8.652;2023-04-01T08:51:43;0.20;;;0.20;;
13279;SDS011;6708;49.814;8.652;2023-04-01T08:57:45;0.20;;;0.20;;
13279;SDS011;6708;49.814;8.652;2023-04-01T09:00:43;0.67;;;0.30;;
13279;SDS011;6708;49.814;8.652;2023-04-01T09:03:31;0.10;;;0.10;;
13279;SDS011;6708;49.814;8.652;2023-04-01T09:18:08;0.83;;;0.20;;
13279;SDS011;6708;49.814;8.652;2023-04-01T09:20:46;0.20;;;0.20;;
13279;SDS011;6708;49.814;8.652;2023-04-01T09:26:34;0.10;;;0.10;;
13279;SDS011;6708;49.814;8.652;2023-04-01T09:29:18;1.03;;;0.00;;
13279;SDS011;6708;49.814;8.652;2023-04-01T09:31:59;0.40;;;0.40;;
13279;SDS011;6708;49.814;8.652;2023-04-01T09:34:52;0.10;;;0.10;;
13279;SDS011;6708;49.814;8.652;2023-04-01T09:37:34;0.10;;;0.10;;
13279;SDS011;6708;49.814;8.652;2023-04-01T09:40:17;0.17;;;0.17;;
13279;SDS011;6708;49.814;8.652;2023-04-01T09:43:03;0.23;;;0.20;;
13279;SDS011;6708;49.814;8.652;2023-04-01T09:46:02;0.10;;;0.10;;
13279;SDS011;6708;49.814;8.652;2023-04-01T09:48:46;0.10;;;0.10;;
13279;SDS011;6708;49.814;8.652;2023-04-01T09:51:26;0.10;;;0.10;;
13279;SDS011;6708;49.814;8.652;2023-04-01T10:00:20;0.33;;;0.10;;
13279;SDS011;6708;49.814;8.652;2023-04-01T10:03:23;0.10;;;0.10;;
13279;SDS011;6708;49.814;8.652;2023-04-01T10:09:06;0.33;;;0.10;;
13279;SDS011;6708;49.814;8.652;2023-04-01T10:18:10;0.10;;;0.10;;
13279;SDS011;6708;49.814;8.652;2023-04-01T10:21:06;0.30;;;0.10;;
13279;SDS011;6708;49.814;8.652;2023-04-01T10:24:01;0.67;;;0.20;;
13279;SDS011;6708;49.814;8.652;2023-04-01T10:33:21;0.20;;;0.10;;
13279;SDS011;6708;49.814;8.652;2023-04-01T10:36:15;0.00;;;0.00;;
13279;SDS011;6708;49.814;8.652;2023-04-01T10:39:13;0.10;;;0.10;;
13279;SDS011;6708;49.814;8.652;2023-04-01T10:48:25;0.30;;;0.07;;
13279;SDS011;6708;49.814;8.652;2023-04-01T10:51:21;0.10;;;0.10;;
13279;SDS011;6708;49.814;8.652;2023-04-01T10:54:20;0.73;;;0.20;;
13279;SDS011;6708;49.814;8.652;2023-04-01T11:00:42;0.10;;;0.10;;
13279;SDS011;6708;49.814;8.652;2023-04-01T11:09:58;0.10;;;0.00;;
13279;SDS011;6708;49.814;8.652;2023-04-01T11:18:49;0.00;;;0.00;;
13279;SDS011;6708;49.814;8.652;2023-04-01T11:21:46;0.53;;;0.20;;
13279;SDS011;6708;49.814;8.652;2023-04-01T11:30:49;0.10;;;0.10;;
13279;SDS011;6708;49.814;8.652;2023-04-01T11:33:25;0.27;;;0.17;;
13279;SDS011;6708;49.814;8.652;2023-04-01T11:36:00;0.57;;;0.20;;
13279;SDS011;6708;49.814;8.652;2023-04-01T11:42:14;1.30;;;0.10;;
13279;SDS011;6708;49.814;8.652;2023-04-01T11:45:10;0.10;;;0.10;;
13279;SDS011;6708;49.814;8.652;2023-04-01T11:47:49;0.00;;;0.00;;
13279;SDS011;6708;49.814;8.652;2023-04-01T11:50:27;0.40;;;0.20;;
13279;SDS011;6708;49.814;8.652;2023-04-01T11:53:06;0.10;;;0.10;;
13279;SDS011;6708;49.814;8.652;2023-04-01T11:55:50;0.17;;;0.17;;
13279;SDS011;6708;49.814;8.652;2023-04-01T11:58:26;0.00;;;0.00;;
13279;SDS011;6708;49.814;8.652;2023-04-01T12:04:17;0.37;;;0.37;;
13279;SDS011;6708;49.814;8.652;2023-04-01T12:07:03;0.20;;;0.20;;
13279;SDS011;6708;49.814;8.652;2023-04-01T12:09:43;0.10;;;0.10;;
13279;SDS011;6708;49.814;8.652;2023-04-01T12:12:20;0.20;;;0.20;;
13279;SDS011;6708;49.814;8.652;2023-04-01T12:14:56;0.37;;;0.10;;
13279;SDS011;6708;49.814;8.652;2023-04-01T12:17:30;0.30;;;0.10;;
13279;SDS011;6708;49.814;8.652;2023-04-01T12:20:12;0.17;;;0.17;;
13279;SDS011;6708;49.814;8.652;2023-04-01T12:22:53;0.10;;;0.10;;
13279;SDS011;6708;49.814;8.652;2023-04-01T12:25:29;0.10;;;0.10;;
13279;SDS011;6708;49.814;8.652;2023-04-01T12:28:13;0.20;;;0.20;;
13279;SDS011;6708;49.814;8.652;2023-04-01T12:30:53;0.20;;;0.20;;
13279;SDS011;6708;49.814;8.652;2023-04-01T12:33:31;0.77;;;0.30;;
13279;SDS011;6708;49.814;8.652;2023-04-01T12:36:22;0.17;;;0.17;;
13279;SDS011;6708;49.814;8.652;2023-04-01T12:39:08;0.47;;;0.10;;
13279;SDS011;6708;49.814;8.652;2023-04-01T12:41:47;0.10;;;0.10;;
13279;SDS011;6708;49.814;8.652;2023-04-01T12:44:36;0.10;;;0.10;;
13279;SDS011;6708;49.814;8.652;2023-04-01T12:47:26;0.20;;;0.20;;
13279;SDS011;6708;49.814;8.652;2023-04-01T12:50:16;0.20;;;0.20;;
13279;SDS011;6708;49.814;8.652;2023-04-01T12:52:52;0.20;;;0.20;;
13279;SDS011;6708;49.814;8.652;2023-04-01T12:55:36;0.10;;;0.10;;
13279;SDS011;6708;49.814;8.652;2023-04-01T12:58:11;0.47;;;0.20;;
13279;SDS011;6708;49.814;8.652;2023-04-01T13:01:07;0.03;;;0.03;;
13279;SDS011;6708;49.814;8.652;2023-04-01T13:03:54;0.10;;;0.10;;
13279;SDS011;6708;49.814;8.652;2023-04-01T13:06:36;0.77;;;0.23;;
13279;SDS011;6708;49.814;8.652;2023-04-01T13:09:12;1.47;;;0.17;;
13279;SDS011;6708;49.814;8.652;2023-04-01T13:11:56;0.10;;;0.10;;
13279;SDS011;6708;49.814;8.652;2023-04-01T13:14:50;0.33;;;0.10;;
13279;SDS011;6708;49.814;8.652;2023-04-01T13:17:47;0.10;;;0.10;;
13279;SDS011;6708;49.814;8.652;2023-04-01T13:20:23;0.30;;;0.30;;
13279;SDS011;6708;49.814;8.652;2023-04-01T13:23:01;0.33;;;0.33;;
13279;SDS011;6708;49.814;8.652;2023-04-01T13:25:36;0.20;;;0.20;;
13279;SDS011;6708;49.814;8.652;2023-04-01T13:28:10;0.20;;;0.20;;
13279;SDS011;6708;49.814;8.652;2023-04-01T13:30:43;0.70;;;0.43;;
13279;SDS011;6708;49.814;8.652;2023-04-01T13:33:20;0.50;;;0.20;;
13279;SDS011;6708;49.814;8.652;2023-04-01T13:35:58;0.10;;;0.10;;
13279;SDS011;6708;49.814;8.652;2023-04-01T13:41:45;0.10;;;0.10;;
13279;SDS011;6708;49.814;8.652;2023-04-01T13:44:22;0.23;;;0.23;;
13279;SDS011;6708;49.814;8.652;2023-04-01T13:47:02;0.20;;;0.20;;
13279;SDS011;6708;49.814;8.652;2023-04-01T13:49:55;1.50;;;0.10;;
13279;SDS011;6708;49.814;8.652;2023-04-01T13:52:44;1.03;;;0.13;;
13279;SDS011;6708;49.814;8.652;2023-04-01T13:55:30;0.50;;;0.10;;
13279;SDS011;6708;49.814;8.652;2023-04-01T13:58:14;0.10;;;0.10;;
13279;SDS011;6708;49.814;8.652;2023-04-01T14:00:51;0.20;;;0.20;;
13279;SDS011;6708;49.814;8.652;2023-04-01T14:03:30;0.20;;;0.20;;
13279;SDS011;6708;49.814;8.652;2023-04-01T14:06:06;0.10;;;0.03;;
13279;SDS011;6708;49.814;8.652;2023-04-01T14:08:55;0.47;;;0.10;;
13279;SDS011;6708;49.814;8.652;2023-04-01T14:11:39;0.10;;;0.10;;
13279;SDS011;6708;49.814;8.652;2023-04-01T14:14:18;0.20;;;0.20;;
13279;SDS011;6708;49.814;8.652;2023-04-01T14:16:57;0.30;;;0.20;;
13279;SDS011;6708;49.814;8.652;2023-04-01T14:19:39;0.30;;;0.20;;
13279;SDS011;6708;49.814;8.652;2023-04-01T14:22:23;0.20;;;0.20;;
13279;SDS011;6708;49.814;8.652;2023-04-01T14:25:01;0.10;;;0.10;;
13279;SDS011;6708;49.814;8.652;2023-04-01T14:27:46;0.20;;;0.10;;
13279;SDS011;6708;49.814;8.652;2023-04-01T14:33:15;0.20;;;0.20;;
13279;SDS011;6708;49.814;8.652;2023-04-01T14:35:50;0.30;;;0.20;;
13279;SDS011;6708;49.814;8.652;2023-04-01T14:38:33;0.30;;;0.20;;
13279;SDS011;6708;49.814;8.652;2023-04-01T14:41:12;0.67;;;0.20;;
13279;SDS011;6708;49.814;8.652;2023-04-01T14:44:00;0.10;;;0.10;;
13279;SDS011;6708;49.814;8.652;2023-04-01T14:49:37;0.10;;;0.10;;
13279;SDS011;6708;49.814;8.652;2023-04-01T14:52:10;0.93;;;0.13;;
13279;SDS011;6708;49.814;8.652;2023-04-01T14:54:43;0.67;;;0.40;;
13279;SDS011;6708;49.814;8.652;2023-04-01T14:57:15;0.77;;;0.33;;
13279;SDS011;6708;49.814;8.652;2023-04-01T14:59:47;0.40;;;0.10;;
13279;SDS011;6708;49.814;8.652;2023-04-01T15:02:24;0.10;;;0.10;;
13279;SDS011;6708;49.814;8.652;2023-04-01T15:05:04;0.03;;;0.03;;
13279;SDS011;6708;49.814;8.652;2023-04-01T15:10:40;0.20;;;0.20;;
13279;SDS011;6708;49.814;8.652;2023-04-01T15:13:15;0.20;;;0.20;;
13279;SDS011;6708;49.814;8.652;2023-04-01T15:15:57;0.10;;;0.10;;
13279;SDS011;6708;49.814;8.652;2023-04-01T15:18:37;0.10;;;0.10;;
13279;SDS011;6708;49.814;8.652;2023-04-01T15:21:18;0.27;;;0.20;;
13279;SDS011;6708;49.814;8.652;2023-04-01T15:23:50;0.17;;;0.10;;
13279;SDS011;6708;49.814;8.652;2023-04-01T15:29:32;0.50;;;0.20;;
13279;SDS011;6708;49.814;8.652;2023-04-01T15:32:21;2.13;;;0.20;;
13279;SDS011;6708;49.814;8.652;2023-04-01T15:34:54;0.10;;;0.10;;
13279;SDS011;6708;49.814;8.652;2023-04-01T15:37:30;0.00;;;0.00;;
13279;SDS011;6708;49.814;8.652;2023-04-01T15:40:07;0.10;;;0.10;;
13279;SDS011;6708;49.814;8.652;2023-04-01T15:42:51;1.03;;;0.20;;
13279;SDS011;6708;49.814;8.652;2023-04-01T15:45:34;0.20;;;0.20;;
13279;SDS011;6708;49.814;8.652;2023-04-01T15:48:13;0.10;;;0.10;;
13279;SDS011;6708;49.814;8.652;2023-04-01T15:51:05;1.47;;;0.10;;
13279;SDS011;6708;49.814;8.652;2023-04-01T15:53:47;0.50;;;0.17;;
13279;SDS011;6708;49.814;8.652;2023-04-01T15:56:24;0.13;;;0.07;;
13279;SDS011;6708;49.814;8.652;2023-04-01T15:58:59;0.30;;;0.30;;
13279;SDS011;6708;49.814;8.652;2023-04-01T16:01:41;0.10;;;0.10;;
13279;SDS011;6708;49.814;8.652;2023-04-01T16:07:10;0.10;;;0.10;;
13279;SDS011;6708;49.814;8.652;2023-04-01T16:09:48;0.30;;;0.30;;
13279;SDS011;6708;49.814;8.652;2023-04-01T16:12:29;0.20;;;0.10;;
13279;SDS011;6708;49.814;8.652;2023-04-01T16:15:08;0.40;;;0.20;;
13279;SDS011;6708;49.814;8.652;2023-04-01T16:20:44;0.57;;;0.20;;
13279;SDS011;6708;49.814;8.652;2023-04-01T16:23:17;0.10;;;0.10;;
13279;SDS011;6708;49.814;8.652;2023-04-01T16:25:49;0.30;;;0.30;;
13279;SDS011;6708;49.814;8.652;2023-04-01T16:28:23;0.40;;;0.40;;
13279;SDS011;6708;49.814;8.652;2023-04-01T16:30:55;0.00;;;0.00;;
13279;SDS011;6708;49.814;8.652;2023-04-01T16:33:32;0.37;;;0.20;;
13279;SDS011;6708;49.814;8.652;2023-04-01T16:36:11;3.40;;;0.23;;
13279;SDS011;6708;49.814;8.652;2023-04-01T16:38:42;0.30;;;0.30;;
13279;SDS011;6708;49.814;8.652;2023-04-01T16:41:16;0.30;;;0.30;;
13279;SDS011;6708;49.814;8.652;2023-04-01T16:43:46;0.20;;;0.20;;
13279;SDS011;6708;49.814;8.652;2023-04-01T16:46:31;0.47;;;0.40;;
13279;SDS011;6708;49.814;8.652;2023-04-01T16:49:08;0.10;;;0.10;;
13279;SDS011;6708;49.814;8.652;2023-04-01T16:51:46;0.30;;;0.30;;
13279;SDS011;6708;49.814;8.652;2023-04-01T16:54:18;0.47;;;0.30;;
13279;SDS011;6708;49.814;8.652;2023-04-01T16:57:01;0.20;;;0.20;;
13279;SDS011;6708;49.814;8.652;2023-04-01T16:59:34;0.23;;;0.23;;
13279;SDS011;6708;49.814;8.652;2023-04-01T17:02:08;1.03;;;0.10;;
13279;SDS011;6708;49.814;8.652;2023-04-01T17:04:43;0.30;;;0.13;;
13279;SDS011;6708;49.814;8.652;2023-04-01T17:07:17;0.30;;;0.30;;
13279;SDS011;6708;49.814;8.652;2023-04-01T17:09:57;0.10;;;0.10;;
13279;SDS011;6708;49.814;8.652;2023-04-01T17:12:37;0.73;;;0.20;;
13279;SDS011;6708;49.814;8.652;2023-04-01T17:15:10;0.20;;;0.20;;
13279;SDS011;6708;49.814;8.652;2023-04-01T17:17:45;0.20;;;0.20;;
13279;SDS011;6708;49.814;8.652;2023-04-01T17:23:10;0.10;;;0.10;;
13279;SDS011;6708;49.814;8.652;2023-04-01T17:25:57;0.20;;;0.20;;
13279;SDS011;6708;49.814;8.652;2023-04-01T17:28:50;0.10;;;0.10;;
13279;SDS011;6708;49.814;8.652;2023-04-01T17:31:23;0.20;;;0.20;;
13279;SDS011;6708;49.814;8.652;2023-04-01T17:37:02;0.17;;;0.10;;
13279;SDS011;6708;49.814;8.652;2023-04-01T17:39:47;0.30;;;0.30;;
13279;SDS011;6708;49.814;8.652;2023-04-01T17:42:21;0.10;;;0.10;;
13279;SDS011;6708;49.814;8.652;2023-04-01T17:44:53;0.10;;;0.10;;
13279;SDS011;6708;49.814;8.652;2023-04-01T17:47:29;0.27;;;0.10;;
13279;SDS011;6708;49.814;8.652;2023-04-01T17:50:08;0.20;;;0.20;;
13279;SDS011;6708;49.814;8.652;2023-04-01T17:52:47;0.83;;;0.20;;